createdAt,value
2022-09-28T00:00:23.850Z,15.25
2022-09-28T00:02:57.660Z,16.02
2022-09-28T00:05:32.808Z,16.48
2022-09-28T00:07:59.673Z,15.10
2022-09-28T00:10:26.692Z,17.45
2022-09-28T00:12:57.208Z,17.92
2022-09-28T00:15:24.679Z,18.77
2022-09-28T00:18:01.498Z,17.70
2022-09-28T00:20:28.193Z,18.10
2022-09-28T00:22:58.070Z,20.85
2022-09-28T00:25:25.058Z,18.20
2022-09-28T00:27:53.655Z,19.45
2022-09-28T00:30:20.523Z,19.42
2022-09-28T00:32:47.198Z,19.52
2022-09-28T00:35:14.179Z,18.52
2022-09-28T00:37:40.949Z,18.77
2022-09-28T00:40:10.802Z,19.95
2022-09-28T00:42:37.522Z,19.63
2022-09-28T00:45:05.118Z,19.83
2022-09-28T00:47:52.055Z,19.85
2022-09-28T00:50:39.971Z,19.85
2022-09-28T00:53:21.506Z,17.58
2022-09-28T00:56:03.676Z,22.15
2022-09-28T00:58:38.411Z,20.55
2022-09-28T01:01:13.223Z,20.20
2022-09-28T01:03:48.581Z,20.52
2022-09-28T01:06:28.305Z,20.98
2022-09-28T01:09:03.065Z,20.98
2022-09-28T01:11:38.211Z,20.63
2022-09-28T01:14:11.898Z,20.77
2022-09-28T01:17:17.955Z,20.77
2022-09-28T01:20:15.384Z,19.40
2022-09-28T01:23:15.389Z,22.35
2022-09-28T01:26:11.869Z,21.02
2022-09-28T01:28:48.090Z,19.55
2022-09-28T01:31:21.490Z,20.35
2022-09-28T01:34:15.951Z,20.70
2022-09-28T01:37:01.593Z,20.58
2022-09-28T01:39:48.449Z,17.20
2022-09-28T01:42:27.660Z,18.65
2022-09-28T01:45:07.440Z,19.80
2022-09-28T01:47:40.951Z,18.55
2022-09-28T01:50:18.349Z,19.65
2022-09-28T01:53:09.699Z,18.77
2022-09-28T01:55:50.699Z,16.38
2022-09-28T01:58:46.027Z,16.55
2022-09-28T02:01:28.175Z,18.25
2022-09-28T02:04:16.983Z,17.63
2022-09-28T02:06:58.779Z,17.70
2022-09-28T02:09:47.143Z,17.05
2022-09-28T02:12:23.025Z,17.95
2022-09-28T02:15:01.898Z,18.48
2022-09-28T02:17:29.201Z,20.33
2022-09-28T02:19:56.223Z,19.30
2022-09-28T02:22:43.944Z,19.40
2022-09-28T02:25:24.863Z,20.20
2022-09-28T02:28:02.143Z,18.70
2022-09-28T02:30:38.209Z,19.13
2022-09-28T02:33:32.439Z,18.27
2022-09-28T02:36:01.501Z,17.60
2022-09-28T02:38:28.229Z,18.42
2022-09-28T02:42:02.717Z,16.77
2022-09-28T02:44:53.671Z,17.10
2022-09-28T02:48:16.052Z,16.25
2022-09-28T02:51:36.146Z,16.92
2022-09-28T02:54:21.357Z,17.83
2022-09-28T02:57:09.769Z,16.65
2022-09-28T03:00:17.695Z,16.60
2022-09-28T03:03:17.968Z,16.38
2022-09-28T03:06:29.586Z,16.75
2022-09-28T03:09:20.321Z,16.05
2022-09-28T03:11:56.783Z,16.15
2022-09-28T03:14:24.011Z,16.92
2022-09-28T03:16:51.048Z,17.10
2022-09-28T03:19:27.983Z,16.55
2022-09-28T03:21:55.599Z,16.48
2022-09-28T03:24:22.444Z,18.33
2022-09-28T03:26:49.219Z,15.80
2022-09-28T03:29:16.235Z,18.13
2022-09-28T03:31:44.122Z,17.45
2022-09-28T03:34:11.048Z,14.80
2022-09-28T03:36:37.820Z,14.77
2022-09-28T03:39:04.627Z,15.88
2022-09-28T03:41:31.357Z,15.02
2022-09-28T03:43:58.105Z,17.58
2022-09-28T03:46:24.943Z,15.90
2022-09-28T03:48:51.620Z,16.42
2022-09-28T03:51:18.306Z,15.57
2022-09-28T03:53:48.115Z,16.15
2022-09-28T03:56:16.082Z,14.77
2022-09-28T03:58:43.455Z,15.48
2022-09-28T04:01:17.524Z,14.70
2022-09-28T04:03:46.288Z,15.50
2022-09-28T04:06:14.480Z,15.30
2022-09-28T04:08:41.304Z,15.27
2022-09-28T04:11:08.022Z,15.63
2022-09-28T04:13:34.814Z,14.90
2022-09-28T04:16:02.450Z,16.40
2022-09-28T04:18:29.813Z,15.68
2022-09-28T04:21:19.598Z,15.48
2022-09-28T04:23:48.785Z,16.85
2022-09-28T04:26:30.406Z,17.60
2022-09-28T04:29:15.644Z,16.55
2022-09-28T04:31:49.612Z,16.80
2022-09-28T04:34:21.007Z,18.77
2022-09-28T04:36:49.386Z,18.58
2022-09-28T04:39:21.970Z,16.23
2022-09-28T04:41:49.573Z,17.30
2022-09-28T04:44:16.383Z,17.63
2022-09-28T04:46:43.994Z,17.05
2022-09-28T04:49:11.528Z,16.05
2022-09-28T04:51:38.226Z,16.00
2022-09-28T04:54:05.024Z,15.45
2022-09-28T04:56:31.704Z,16.45
2022-09-28T04:58:58.530Z,15.88
2022-09-28T05:36:35.675Z,16.52
2022-09-28T05:52:37.505Z,15.98
2022-09-28T05:55:09.529Z,15.70
2022-09-28T06:19:28.966Z,14.90
2022-09-28T06:27:18.331Z,14.88
2022-09-28T07:10:15.532Z,14.40
2022-09-28T07:53:38.592Z,13.43
2022-09-28T08:37:11.262Z,11.05
2022-09-28T08:39:38.273Z,12.88
2022-09-28T08:42:25.180Z,12.02
2022-09-28T08:44:59.011Z,13.38
2022-09-28T08:48:04.077Z,11.98
2022-09-28T08:50:38.691Z,12.57
2022-09-28T08:54:06.954Z,11.88
2022-09-28T08:57:04.487Z,13.00
2022-09-28T09:02:39.476Z,12.32
2022-09-28T09:05:14.673Z,11.20
2022-09-28T09:08:37.357Z,10.98
2022-09-28T09:12:08.196Z,10.93
2022-09-28T09:15:32.272Z,9.80
2022-09-28T09:18:46.790Z,10.95
2022-09-28T09:22:03.102Z,10.15
2022-09-28T09:24:55.145Z,11.30
2022-09-28T09:28:17.315Z,12.07
2022-09-28T09:31:26.633Z,12.77
2022-09-28T09:34:35.662Z,13.73
2022-09-28T09:37:24.786Z,14.30
2022-09-28T09:40:44.640Z,13.70
2022-09-28T09:43:44.094Z,14.40
2022-09-28T09:46:36.957Z,14.48
2022-09-28T09:49:33.511Z,15.07
2022-09-28T09:52:42.292Z,13.20
2022-09-28T09:55:36.160Z,13.88
2022-09-28T09:58:21.746Z,14.93
2022-09-28T10:00:55.072Z,14.00
2022-09-28T10:03:30.512Z,13.73
2022-09-28T10:06:17.837Z,14.82
2022-09-28T10:09:01.372Z,15.13
2022-09-28T10:11:43.941Z,15.15
2022-09-28T10:14:27.918Z,14.80
2022-09-28T10:16:58.656Z,18.08
2022-09-28T10:19:35.185Z,14.93
2022-09-28T10:22:06.394Z,15.20
2022-09-28T10:24:47.309Z,16.27
2022-09-28T10:27:24.126Z,15.52
2022-09-28T10:30:44.074Z,13.98
2022-09-28T10:33:48.559Z,15.00
2022-09-28T10:36:17.947Z,14.67
2022-09-28T10:38:48.725Z,14.55
2022-09-28T10:41:20.113Z,14.32
2022-09-28T10:44:08.717Z,13.30
2022-09-28T10:46:39.153Z,12.88
2022-09-28T10:49:18.757Z,13.90
2022-09-28T10:51:56.534Z,13.25
2022-09-28T10:54:29.626Z,14.70
2022-09-28T10:57:00.884Z,15.65
2022-09-28T10:59:30.589Z,13.32
2022-09-28T11:02:25.989Z,13.98
2022-09-28T11:05:03.599Z,15.27
2022-09-28T11:07:44.594Z,14.75
2022-09-28T11:10:28.523Z,14.95
2022-09-28T11:12:56.894Z,14.98
2022-09-28T11:15:33.866Z,14.75
2022-09-28T11:18:32.343Z,15.57
2022-09-28T11:21:19.211Z,15.75
2022-09-28T11:24:20.259Z,14.57
2022-09-28T11:26:52.931Z,15.98
2022-09-28T11:29:57.679Z,16.33
2022-09-28T11:32:39.490Z,15.25
2022-09-28T11:35:07.318Z,16.38
2022-09-28T11:38:07.953Z,15.68
2022-09-28T11:41:02.487Z,16.90
2022-09-28T11:44:20.589Z,16.83
2022-09-28T11:47:51.541Z,18.13
2022-09-28T11:50:57.356Z,17.00
2022-09-28T11:53:48.937Z,16.83
2022-09-28T11:56:41.811Z,16.55
2022-09-28T11:59:31.853Z,16.88
2022-09-28T12:02:19.662Z,14.52
2022-09-28T12:04:51.163Z,14.70
2022-09-28T12:07:47.731Z,15.02
2022-09-28T12:10:51.350Z,14.20
2022-09-28T12:13:39.111Z,14.68
2022-09-28T12:17:05.055Z,16.20
2022-09-28T12:20:22.735Z,14.57
2022-09-28T12:23:15.068Z,16.58
2022-09-28T12:26:11.137Z,17.00
2022-09-28T12:29:26.932Z,17.67
2022-09-28T12:32:30.781Z,17.77
2022-09-28T13:57:31.136Z,15.15
2022-09-28T14:18:26.769Z,11.02
2022-09-28T14:22:13.446Z,10.15
2022-09-28T14:25:24.161Z,9.88
2022-09-28T14:28:30.554Z,10.07
2022-09-28T14:30:59.095Z,9.55
2022-09-28T14:33:32.060Z,11.05
2022-09-28T14:36:42.381Z,10.88
2022-09-28T14:39:50.550Z,10.63
2022-09-28T14:48:22.476Z,12.23
2022-09-28T14:50:52.911Z,12.75
2022-09-28T15:13:30.532Z,10.85
2022-09-28T15:16:17.573Z,9.70
2022-09-28T16:32:28.479Z,6.03
2022-09-28T16:43:43.405Z,6.30
2022-09-28T17:00:06.547Z,6.28
2022-09-28T17:02:46.295Z,6.70
2022-09-28T17:05:19.046Z,7.45
2022-09-28T17:08:03.848Z,5.60
2022-09-28T17:11:09.686Z,5.63
2022-09-28T17:13:35.950Z,5.87
2022-09-28T17:16:11.029Z,6.55
2022-09-28T17:35:23.595Z,5.38
2022-09-28T17:37:51.171Z,6.03
2022-09-28T17:43:12.294Z,6.32
2022-09-28T17:45:41.049Z,6.75
2022-09-28T17:56:31.687Z,7.32
2022-09-28T18:20:57.871Z,11.05
2022-09-28T18:31:37.587Z,10.38
2022-09-28T18:34:04.567Z,10.32
2022-09-28T18:36:35.630Z,10.48
2022-09-28T18:39:05.517Z,10.57
2022-09-28T18:49:45.934Z,11.25
2022-09-28T20:00:57.067Z,29.63
2022-09-28T20:06:17.067Z,14.77
2022-09-28T20:11:32.433Z,15.38
2022-09-28T20:16:46.478Z,15.65
2022-09-28T20:24:39.891Z,16.33
2022-09-28T20:27:08.974Z,20.35
2022-09-28T20:32:17.862Z,18.20
2022-09-28T20:34:48.510Z,20.13
2022-09-28T20:37:17.766Z,21.25
2022-09-28T20:39:46.294Z,22.50
2022-09-28T20:44:56.313Z,22.75
2022-09-28T20:50:12.021Z,21.38
2022-09-28T20:52:44.891Z,21.88
2022-09-28T20:55:15.639Z,26.70
2022-09-28T20:57:42.504Z,24.70
2022-09-28T21:00:12.638Z,25.65
2022-09-28T21:02:48.555Z,25.92
2022-09-28T21:05:34.508Z,24.73
2022-09-28T21:08:02.120Z,23.83
2022-09-28T21:10:32.973Z,21.65
2022-09-28T21:13:02.459Z,23.73
2022-09-28T21:15:32.801Z,25.40
2022-09-28T21:17:59.779Z,23.30
2022-09-28T21:20:32.153Z,20.95
2022-09-28T21:23:24.735Z,25.75
2022-09-28T21:26:15.260Z,28.05
2022-09-28T21:28:44.708Z,27.58
2022-09-28T21:31:12.938Z,28.70
2022-09-28T21:33:54.851Z,28.25
2022-09-28T21:36:27.375Z,30.13
2022-09-28T21:38:58.242Z,29.73
2022-09-28T22:05:53.070Z,27.35
2022-09-28T22:08:21.485Z,28.30
2022-09-28T22:11:13.160Z,28.60
2022-09-28T22:13:57.856Z,28.30
2022-09-28T22:16:29.562Z,28.88
2022-09-28T22:18:57.884Z,29.60
2022-09-28T22:21:34.162Z,26.48
2022-09-28T22:24:05.182Z,28.00
2022-09-28T22:26:35.080Z,29.13
2022-09-28T22:29:09.572Z,28.27
2022-09-28T22:31:40.969Z,25.35
2022-09-28T22:34:09.085Z,26.73
2022-09-28T22:36:36.268Z,27.20
2022-09-28T22:39:03.854Z,26.73
2022-09-28T22:41:31.802Z,28.08
2022-09-28T22:43:59.153Z,26.95
2022-09-28T22:46:31.946Z,25.98
2022-09-28T22:49:50.392Z,26.52
2022-09-28T22:52:17.527Z,25.15
2022-09-28T22:54:45.673Z,25.98
2022-09-28T22:57:12.471Z,25.42
2022-09-28T22:59:39.225Z,25.98
2022-09-28T23:02:06.414Z,25.25
2022-09-28T23:04:33.153Z,26.13
2022-09-28T23:06:59.851Z,25.83
2022-09-28T23:09:26.448Z,26.50
2022-09-28T23:11:53.090Z,26.90
2022-09-28T23:14:22.935Z,24.80
2022-09-28T23:16:49.770Z,25.15
2022-09-28T23:19:16.909Z,26.30
2022-09-28T23:21:43.682Z,25.58
2022-09-28T23:24:11.131Z,25.90
2022-09-28T23:26:37.771Z,25.02
2022-09-28T23:29:04.875Z,24.63
2022-09-28T23:31:33.226Z,25.45
2022-09-28T23:34:06.629Z,25.10
2022-09-28T23:36:34.800Z,25.17
2022-09-28T23:39:02.851Z,25.92
2022-09-28T23:41:30.071Z,24.75
2022-09-28T23:43:56.792Z,25.23
2022-09-28T23:46:23.614Z,26.50
2022-09-28T23:48:50.523Z,25.45
2022-09-28T23:51:17.410Z,25.27
2022-09-28T23:53:44.783Z,26.10
2022-09-28T23:56:12.389Z,25.58
2022-09-28T23:58:46.340Z,25.52
